sensor_id;sensor_type;location;lat;lon;timestamp;temperature;humidity
18297;DHT22;18066;52.106;5.534;2023-05-07T00:02:19;16.30;99.90
18297;DHT22;18066;52.106;5.534;2023-05-07T00:04:46;16.20;99.90
18297;DHT22;18066;52.106;5.534;2023-05-07T00:07:12;16.20;99.90
18297;DHT22;18066;52.106;5.534;2023-05-07T00:09:39;16.10;99.90
18297;DHT22;18066;52.106;5.534;2023-05-07T00:12:07;16.10;99.90
18297;DHT22;18066;52.106;5.534;2023-05-07T00:14:34;16.10;99.90
18297;DHT22;18066;52.106;5.534;2023-05-07T00:17:01;16.10;99.90
18297;DHT22;18066;52.106;5.534;2023-05-07T00:19:28;16.10;99.90
18297;DHT22;18066;52.106;5.534;2023-05-07T00:21:55;16.20;99.90
18297;DHT22;18066;52.106;5.534;2023-05-07T00:24:22;16.20;99.90
18297;DHT22;18066;52.106;5.534;2023-05-07T00:26:49;16.20;99.90
18297;DHT22;18066;52.106;5.534;2023-05-07T00:29:17;16.20;99.90
18297;DHT22;18066;52.106;5.534;2023-05-07T00:31:44;16.10;99.90
18297;DHT22;18066;52.106;5.534;2023-05-07T00:34:11;16.10;99.90
18297;DHT22;18066;52.106;5.534;2023-05-07T00:36:38;16.10;99.90
18297;DHT22;18066;52.106;5.534;2023-05-07T00:39:04;16.10;99.90
18297;DHT22;18066;52.106;5.534;2023-05-07T00:41:32;16.00;99.90
18297;DHT22;18066;52.106;5.534;2023-05-07T00:43:59;16.00;99.90
18297;DHT22;18066;52.106;5.534;2023-05-07T00:46:27;16.00;99.90
18297;DHT22;18066;52.106;5.534;2023-05-07T00:48:54;15.90;99.90
18297;DHT22;18066;52.106;5.534;2023-05-07T00:51:21;16.00;99.90
18297;DHT22;18066;52.106;5.534;2023-05-07T00:53:48;16.00;99.90
18297;DHT22;18066;52.106;5.534;2023-05-07T00:56:15;15.90;99.90
18297;DHT22;18066;52.106;5.534;2023-05-07T00:58:43;15.80;99.90
18297;DHT22;18066;52.106;5.534;2023-05-07T01:01:10;15.80;99.90
18297;DHT22;18066;52.106;5.534;2023-05-07T01:03:38;15.80;99.90
18297;DHT22;18066;52.106;5.534;2023-05-07T01:06:06;15.80;99.90
18297;DHT22;18066;52.106;5.534;2023-05-07T01:08:34;15.80;99.90
18297;DHT22;18066;52.106;5.534;2023-05-07T01:11:01;15.80;99.90
18297;DHT22;18066;52.106;5.534;2023-05-07T01:13:29;15.80;99.90
18297;DHT22;18066;52.106;5.534;2023-05-07T01:15:56;15.70;99.90
18297;DHT22;18066;52.106;5.534;2023-05-07T01:18:23;15.60;99.90
18297;DHT22;18066;52.106;5.534;2023-05-07T01:20:52;15.80;99.90
18297;DHT22;18066;52.106;5.534;2023-05-07T01:23:21;15.80;99.90
18297;DHT22;18066;52.106;5.534;2023-05-07T01:25:52;15.80;99.90
18297;DHT22;18066;52.106;5.534;2023-05-07T01:28:19;15.80;99.90
18297;DHT22;18066;52.106;5.534;2023-05-07T01:30:49;15.80;99.90
18297;DHT22;18066;52.106;5.534;2023-05-07T01:33:19;15.70;99.90
18297;DHT22;18066;52.106;5.534;2023-05-07T01:35:51;15.80;99.90
18297;DHT22;18066;52.106;5.534;2023-05-07T01:38:20;15.70;99.90
18297;DHT22;18066;52.106;5.534;2023-05-07T01:40:48;15.80;99.90
18297;DHT22;18066;52.106;5.534;2023-05-07T01:43:15;15.80;99.90
18297;DHT22;18066;52.106;5.534;2023-05-07T01:45:42;15.80;99.90
18297;DHT22;18066;52.106;5.534;2023-05-07T01:48:10;15.80;99.90
18297;DHT22;18066;52.106;5.534;2023-05-07T01:50:38;15.80;99.90
18297;DHT22;18066;52.106;5.534;2023-05-07T01:53:05;15.80;99.90
18297;DHT22;18066;52.106;5.534;2023-05-07T01:55:33;15.80;99.90
18297;DHT22;18066;52.106;5.534;2023-05-07T01:58:02;15.80;99.90
18297;DHT22;18066;52.106;5.534;2023-05-07T02:00:28;15.70;99.90
18297;DHT22;18066;52.106;5.534;2023-05-07T02:02:55;15.80;99.90
18297;DHT22;18066;52.106;5.534;2023-05-07T02:05:23;15.80;99.90
18297;DHT22;18066;52.106;5.534;2023-05-07T02:07:49;15.80;99.90
18297;DHT22;18066;52.106;5.534;2023-05-07T02:10:16;15.90;99.90
18297;DHT22;18066;52.106;5.534;2023-05-07T02:12:44;15.90;99.90
18297;DHT22;18066;52.106;5.534;2023-05-07T02:15:11;15.90;99.90
18297;DHT22;18066;52.106;5.534;2023-05-07T02:17:40;15.90;99.90
18297;DHT22;18066;52.106;5.534;2023-05-07T02:20:24;15.90;99.90
18297;DHT22;18066;52.106;5.534;2023-05-07T02:22:51;15.90;99.90
18297;DHT22;18066;52.106;5.534;2023-05-07T02:25:17;15.90;99.90
18297;DHT22;18066;52.106;5.534;2023-05-07T02:27:45;15.80;99.90
18297;DHT22;18066;52.106;5.534;2023-05-07T02:30:13;15.80;99.90
18297;DHT22;18066;52.106;5.534;2023-05-07T02:32:40;15.70;99.90
18297;DHT22;18066;52.106;5.534;2023-05-07T02:35:07;15.80;99.90
18297;DHT22;18066;52.106;5.534;2023-05-07T02:37:34;15.70;99.90
18297;DHT22;18066;52.106;5.534;2023-05-07T02:40:01;15.80;99.90
18297;DHT22;18066;52.106;5.534;2023-05-07T02:42:29;15.70;99.90
18297;DHT22;18066;52.106;5.534;2023-05-07T02:44:58;15.80;99.90
18297;DHT22;18066;52.106;5.534;2023-05-07T02:47:25;15.70;99.90
18297;DHT22;18066;52.106;5.534;2023-05-07T02:49:54;15.80;99.90
18297;DHT22;18066;52.106;5.534;2023-05-07T02:52:20;15.70;99.90
18297;DHT22;18066;52.106;5.534;2023-05-07T02:54:47;15.80;99.90
18297;DHT22;18066;52.106;5.534;2023-05-07T02:57:14;15.80;99.90
18297;DHT22;18066;52.106;5.534;2023-05-07T02:59:41;15.80;99.90
18297;DHT22;18066;52.106;5.534;2023-05-07T03:02:09;15.80;99.90
18297;DHT22;18066;52.106;5.534;2023-05-07T03:04:36;15.70;99.90
18297;DHT22;18066;52.106;5.534;2023-05-07T03:07:03;15.70;99.90
18297;DHT22;18066;52.106;5.534;2023-05-07T03:09:30;15.70;99.90
18297;DHT22;18066;52.106;5.534;2023-05-07T03:11:56;15.70;99.90
18297;DHT22;18066;52.106;5.534;2023-05-07T03:14:23;15.70;99.90
18297;DHT22;18066;52.106;5.534;2023-05-07T03:16:50;15.70;99.90
18297;DHT22;18066;52.106;5.534;2023-05-07T03:19:18;15.70;99.90
18297;DHT22;18066;52.106;5.534;2023-05-07T03:21:45;15.80;99.90
18297;DHT22;18066;52.106;5.534;2023-05-07T03:24:12;15.80;99.90
18297;DHT22;18066;52.106;5.534;2023-05-07T03:26:38;15.80;99.90
18297;DHT22;18066;52.106;5.534;2023-05-07T03:29:05;15.80;99.90
18297;DHT22;18066;52.106;5.534;2023-05-07T03:31:32;15.70;99.90
18297;DHT22;18066;52.106;5.534;2023-05-07T03:33:59;15.80;99.90
18297;DHT22;18066;52.106;5.534;2023-05-07T03:36:27;15.80;99.90
18297;DHT22;18066;52.106;5.534;2023-05-07T03:38:53;15.80;99.90
18297;DHT22;18066;52.106;5.534;2023-05-07T03:41:20;15.80;99.90
18297;DHT22;18066;52.106;5.534;2023-05-07T03:43:47;15.70;99.90
18297;DHT22;18066;52.106;5.534;2023-05-07T03:46:14;15.70;99.90
18297;DHT22;18066;52.106;5.534;2023-05-07T03:48:41;15.70;99.90
18297;DHT22;18066;52.106;5.534;2023-05-07T03:51:07;15.70;99.90
18297;DHT22;18066;52.106;5.534;2023-05-07T03:53:35;15.70;99.90
18297;DHT22;18066;52.106;5.534;2023-05-07T03:56:03;15.60;99.90
18297;DHT22;18066;52.106;5.534;2023-05-07T03:58:29;15.70;99.90
18297;DHT22;18066;52.106;5.534;2023-05-07T04:00:56;15.60;99.90
18297;DHT22;18066;52.106;5.534;2023-05-07T04:03:23;15.70;99.90
18297;DHT22;18066;52.106;5.534;2023-05-07T04:05:49;15.70;99.90
18297;DHT22;18066;52.106;5.534;2023-05-07T04:08:16;15.70;99.90
18297;DHT22;18066;52.106;5.534;2023-05-07T04:10:44;15.70;99.90
18297;DHT22;18066;52.106;5.534;2023-05-07T04:13:11;15.70;99.90
18297;DHT22;18066;52.106;5.534;2023-05-07T04:15:38;15.70;99.90
18297;DHT22;18066;52.106;5.534;2023-05-07T04:18:04;15.60;99.90
18297;DHT22;18066;52.106;5.534;2023-05-07T04:20:34;15.70;99.90
18297;DHT22;18066;52.106;5.534;2023-05-07T04:23:01;15.80;99.90
18297;DHT22;18066;52.106;5.534;2023-05-07T04:25:28;15.70;99.90
18297;DHT22;18066;52.106;5.534;2023-05-07T04:27:57;15.80;99.90
18297;DHT22;18066;52.106;5.534;2023-05-07T04:30:24;15.80;99.90
18297;DHT22;18066;52.106;5.534;2023-05-07T04:32:51;15.80;99.90
18297;DHT22;18066;52.106;5.534;2023-05-07T04:35:18;15.80;99.90
18297;DHT22;18066;52.106;5.534;2023-05-07T04:37:45;15.80;99.90
18297;DHT22;18066;52.106;5.534;2023-05-07T04:40:11;15.80;99.90
18297;DHT22;18066;52.106;5.534;2023-05-07T04:42:38;15.80;99.90
18297;DHT22;18066;52.106;5.534;2023-05-07T04:45:07;15.80;99.90
18297;DHT22;18066;52.106;5.534;2023-05-07T04:47:35;15.70;99.90
18297;DHT22;18066;52.106;5.534;2023-05-07T04:50:03;15.60;99.90
18297;DHT22;18066;52.106;5.534;2023-05-07T04:52:29;15.60;99.90
18297;DHT22;18066;52.106;5.534;2023-05-07T04:54:58;15.50;99.90
18297;DHT22;18066;52.106;5.534;2023-05-07T04:57:25;15.40;99.90
18297;DHT22;18066;52.106;5.534;2023-05-07T04:59:52;15.40;99.90
18297;DHT22;18066;52.106;5.534;2023-05-07T05:02:20;15.40;99.90
18297;DHT22;18066;52.106;5.534;2023-05-07T05:04:47;15.40;99.90
18297;DHT22;18066;52.106;5.534;2023-05-07T05:07:14;15.40;99.90
18297;DHT22;18066;52.106;5.534;2023-05-07T05:09:40;15.40;99.90
18297;DHT22;18066;52.106;5.534;2023-05-07T05:12:07;15.50;99.90
18297;DHT22;18066;52.106;5.534;2023-05-07T05:14:34;15.50;99.90
18297;DHT22;18066;52.106;5.534;2023-05-07T05:17:01;15.60;99.90
18297;DHT22;18066;52.106;5.534;2023-05-07T05:19:29;15.50;99.90
18297;DHT22;18066;52.106;5.534;2023-05-07T05:21:56;15.60;99.90
18297;DHT22;18066;52.106;5.534;2023-05-07T05:24:23;15.60;99.90
18297;DHT22;18066;52.106;5.534;2023-05-07T05:26:49;15.50;99.90
18297;DHT22;18066;52.106;5.534;2023-05-07T05:29:16;15.50;99.90
18297;DHT22;18066;52.106;5.534;2023-05-07T05:31:43;15.50;99.90
18297;DHT22;18066;52.106;5.534;2023-05-07T05:34:09;15.50;99.90
18297;DHT22;18066;52.106;5.534;2023-05-07T05:36:38;15.60;99.90
18297;DHT22;18066;52.106;5.534;2023-05-07T05:39:04;15.70;99.90
18297;DHT22;18066;52.106;5.534;2023-05-07T05:41:31;15.70;99.90
18297;DHT22;18066;52.106;5.534;2023-05-07T05:43:58;15.80;99.90
18297;DHT22;18066;52.106;5.534;2023-05-07T05:46:25;15.90;99.90
18297;DHT22;18066;52.106;5.534;2023-05-07T05:48:51;15.90;99.90
18297;DHT22;18066;52.106;5.534;2023-05-07T05:51:18;15.90;99.90
18297;DHT22;18066;52.106;5.534;2023-05-07T05:53:46;16.00;99.90
18297;DHT22;18066;52.106;5.534;2023-05-07T05:56:13;16.10;99.90
18297;DHT22;18066;52.106;5.534;2023-05-07T05:58:40;16.20;99.90
18297;DHT22;18066;52.106;5.534;2023-05-07T06:01:07;16.20;99.90
18297;DHT22;18066;52.106;5.534;2023-05-07T06:03:34;16.20;99.90
18297;DHT22;18066;52.106;5.534;2023-05-07T06:06:01;16.30;99.90
18297;DHT22;18066;52.106;5.534;2023-05-07T06:08:29;16.30;99.90
18297;DHT22;18066;52.106;5.534;2023-05-07T06:10:57;16.50;99.90
18297;DHT22;18066;52.106;5.534;2023-05-07T06:13:25;16.60;99.90
18297;DHT22;18066;52.106;5.534;2023-05-07T06:15:52;16.60;99.90
18297;DHT22;18066;52.106;5.534;2023-05-07T06:18:18;16.60;99.90
18297;DHT22;18066;52.106;5.534;2023-05-07T06:20:45;16.80;99.90
18297;DHT22;18066;52.106;5.534;2023-05-07T06:23:12;16.80;99.90
18297;DHT22;18066;52.106;5.534;2023-05-07T06:25:40;16.90;99.90
18297;DHT22;18066;52.106;5.534;2023-05-07T06:28:08;17.00;99.90
18297;DHT22;18066;52.106;5.534;2023-05-07T06:30:36;17.00;99.90
18297;DHT22;18066;52.106;5.534;2023-05-07T06:33:03;17.10;99.90
18297;DHT22;18066;52.106;5.534;2023-05-07T06:35:30;17.20;99.90
18297;DHT22;18066;52.106;5.534;2023-05-07T06:37:56;17.20;99.90
18297;DHT22;18066;52.106;5.534;2023-05-07T06:40:23;17.20;99.90
18297;DHT22;18066;52.106;5.534;2023-05-07T06:42:50;17.20;99.90
18297;DHT22;18066;52.106;5.534;2023-05-07T06:45:19;17.30;99.90
18297;DHT22;18066;52.106;5.534;2023-05-07T06:47:45;17.40;99.90
18297;DHT22;18066;52.106;5.534;2023-05-07T06:50:12;17.40;99.90
18297;DHT22;18066;52.106;5.534;2023-05-07T06:52:41;17.40;99.90
18297;DHT22;18066;52.106;5.534;2023-05-07T06:55:08;17.40;99.90
18297;DHT22;18066;52.106;5.534;2023-05-07T06:57:37;17.40;99.90
18297;DHT22;18066;52.106;5.534;2023-05-07T07:00:05;17.40;99.90
18297;DHT22;18066;52.106;5.534;2023-05-07T07:02:36;17.40;99.90
18297;DHT22;18066;52.106;5.534;2023-05-07T07:05:03;17.50;99.90
18297;DHT22;18066;52.106;5.534;2023-05-07T07:07:30;17.50;99.90
18297;DHT22;18066;52.106;5.534;2023-05-07T07:09:56;17.50;99.90
18297;DHT22;18066;52.106;5.534;2023-05-07T07:12:23;17.60;99.90
18297;DHT22;18066;52.106;5.534;2023-05-07T07:14:51;17.70;99.90
18297;DHT22;18066;52.106;5.534;2023-05-07T07:17:18;17.80;99.90
18297;DHT22;18066;52.106;5.534;2023-05-07T07:19:46;17.80;99.90
18297;DHT22;18066;52.106;5.534;2023-05-07T07:22:12;17.90;99.90
18297;DHT22;18066;52.106;5.534;2023-05-07T07:24:39;17.90;99.90
18297;DHT22;18066;52.106;5.534;2023-05-07T07:27:06;18.10;99.90
18297;DHT22;18066;52.106;5.534;2023-05-07T07:29:33;18.10;99.90
18297;DHT22;18066;52.106;5.534;2023-05-07T07:31:59;18.10;99.90
18297;DHT22;18066;52.106;5.534;2023-05-07T07:34:26;18.20;99.90
18297;DHT22;18066;52.106;5.534;2023-05-07T07:36:54;18.30;99.90
18297;DHT22;18066;52.106;5.534;2023-05-07T07:39:21;18.40;99.90
18297;DHT22;18066;52.106;5.534;2023-05-07T07:41:48;18.40;99.90
18297;DHT22;18066;52.106;5.534;2023-05-07T07:44:15;18.50;99.90
18297;DHT22;18066;52.106;5.534;2023-05-07T07:46:42;18.50;99.90
18297;DHT22;18066;52.106;5.534;2023-05-07T07:49:09;18.60;99.90
18297;DHT22;18066;52.106;5.534;2023-05-07T07:51:36;18.50;99.90
18297;DHT22;18066;52.106;5.534;2023-05-07T07:54:04;18.30;99.90
18297;DHT22;18066;52.106;5.534;2023-05-07T07:56:32;18.10;99.90
18297;DHT22;18066;52.106;5.534;2023-05-07T07:58:59;18.30;99.90
18297;DHT22;18066;52.106;5.534;2023-05-07T08:01:26;18.50;99.90
18297;DHT22;18066;52.106;5.534;2023-05-07T08:03:53;18.30;99.90
18297;DHT22;18066;52.106;5.534;2023-05-07T08:06:20;18.50;99.90
18297;DHT22;18066;52.106;5.534;2023-05-07T08:08:46;18.70;99.90
18297;DHT22;18066;52.106;5.534;2023-05-07T08:11:14;18.90;99.90
18297;DHT22;18066;52.106;5.534;2023-05-07T08:13:41;19.10;99.90
18297;DHT22;18066;52.106;5.534;2023-05-07T08:16:08;19.20;99.90
18297;DHT22;18066;52.106;5.534;2023-05-07T08:18:35;19.40;99.90
18297;DHT22;18066;52.106;5.534;2023-05-07T08:21:02;19.20;99.90
18297;DHT22;18066;52.106;5.534;2023-05-07T08:23:29;19.30;99.90
18297;DHT22;18066;52.106;5.534;2023-05-07T08:25:56;19.20;99.90
18297;DHT22;18066;52.106;5.534;2023-05-07T08:28:24;19.30;99.90
18297;DHT22;18066;52.106;5.534;2023-05-07T08:30:51;19.30;99.90
18297;DHT22;18066;52.106;5.534;2023-05-07T08:33:17;19.30;99.90
18297;DHT22;18066;52.106;5.534;2023-05-07T08:35:44;19.20;99.90
18297;DHT22;18066;52.106;5.534;2023-05-07T08:38:11;19.10;99.90
18297;DHT22;18066;52.106;5.534;2023-05-07T08:40:38;19.00;99.90
18297;DHT22;18066;52.106;5.534;2023-05-07T08:43:07;19.00;99.90
18297;DHT22;18066;52.106;5.534;2023-05-07T08:45:35;19.00;99.90
18297;DHT22;18066;52.106;5.534;2023-05-07T08:48:09;18.90;99.90
18297;DHT22;18066;52.106;5.534;2023-05-07T08:50:36;18.90;99.90
18297;DHT22;18066;52.106;5.534;2023-05-07T08:53:03;18.80;99.90
18297;DHT22;18066;52.106;5.534;2023-05-07T08:55:30;18.90;99.90
18297;DHT22;18066;52.106;5.534;2023-05-07T08:57:58;18.90;99.90
18297;DHT22;18066;52.106;5.534;2023-05-07T09:00:25;19.00;99.90
18297;DHT22;18066;52.106;5.534;2023-05-07T09:02:53;19.00;99.90
18297;DHT22;18066;52.106;5.534;2023-05-07T09:05:20;18.80;99.90
18297;DHT22;18066;52.106;5.534;2023-05-07T09:07:47;18.80;99.90
18297;DHT22;18066;52.106;5.534;2023-05-07T09:10:14;18.70;99.90
18297;DHT22;18066;52.106;5.534;2023-05-07T09:12:41;18.60;99.90
18297;DHT22;18066;52.106;5.534;2023-05-07T09:15:09;18.70;99.90
18297;DHT22;18066;52.106;5.534;2023-05-07T09:17:35;18.70;99.90
18297;DHT22;18066;52.106;5.534;2023-05-07T09:20:05;18.70;99.90
18297;DHT22;18066;52.106;5.534;2023-05-07T09:22:32;18.50;99.90
18297;DHT22;18066;52.106;5.534;2023-05-07T09:24:59;18.40;99.90
18297;DHT22;18066;52.106;5.534;2023-05-07T09:27:26;18.20;99.90
18297;DHT22;18066;52.106;5.534;2023-05-07T09:29:53;18.30;99.90
18297;DHT22;18066;52.106;5.534;2023-05-07T09:32:19;18.50;99.90
18297;DHT22;18066;52.106;5.534;2023-05-07T09:34:46;18.80;99.90
18297;DHT22;18066;52.106;5.534;2023-05-07T09:37:15;18.90;99.90
18297;DHT22;18066;52.106;5.534;2023-05-07T09:39:43;19.10;99.90
18297;DHT22;18066;52.106;5.534;2023-05-07T09:42:11;19.20;99.90
18297;DHT22;18066;52.106;5.534;2023-05-07T09:44:38;19.40;99.90
18297;DHT22;18066;52.106;5.534;2023-05-07T09:47:06;19.60;99.90
18297;DHT22;18066;52.106;5.534;2023-05-07T09:49:35;19.80;99.90
18297;DHT22;18066;52.106;5.534;2023-05-07T09:52:03;19.90;99.90
18297;DHT22;18066;52.106;5.534;2023-05-07T09:54:33;19.90;99.90
18297;DHT22;18066;52.106;5.534;2023-05-07T09:57:02;19.90;99.90
18297;DHT22;18066;52.106;5.534;2023-05-07T09:59:30;20.00;99.90
18297;DHT22;18066;52.106;5.534;2023-05-07T10:01:58;20.10;99.90
18297;DHT22;18066;52.106;5.534;2023-05-07T10:04:26;20.30;99.90
18297;DHT22;18066;52.106;5.534;2023-05-07T10:06:53;20.30;99.90
18297;DHT22;18066;52.106;5.534;2023-05-07T10:09:21;20.30;99.90
18297;DHT22;18066;52.106;5.534;2023-05-07T10:11:49;20.30;99.90
18297;DHT22;18066;52.106;5.534;2023-05-07T10:14:17;20.30;99.90
18297;DHT22;18066;52.106;5.534;2023-05-07T10:16:47;20.30;99.90
18297;DHT22;18066;52.106;5.534;2023-05-07T10:19:15;20.40;99.90
18297;DHT22;18066;52.106;5.534;2023-05-07T10:21:44;20.40;99.90
18297;DHT22;18066;52.106;5.534;2023-05-07T10:24:20;20.40;99.90
18297;DHT22;18066;52.106;5.534;2023-05-07T10:26:51;20.50;99.90
18297;DHT22;18066;52.106;5.534;2023-05-07T10:29:25;20.60;99.90
18297;DHT22;18066;52.106;5.534;2023-05-07T10:31:59;20.50;99.90
18297;DHT22;18066;52.106;5.534;2023-05-07T10:34:37;20.50;99.90
18297;DHT22;18066;52.106;5.534;2023-05-07T10:37:05;20.60;99.90
18297;DHT22;18066;52.106;5.534;2023-05-07T10:39:33;20.70;99.90
18297;DHT22;18066;52.106;5.534;2023-05-07T10:42:09;20.70;99.90
18297;DHT22;18066;52.106;5.534;2023-05-07T10:44:36;20.90;99.90
18297;DHT22;18066;52.106;5.534;2023-05-07T10:47:05;21.00;99.90
18297;DHT22;18066;52.106;5.534;2023-05-07T10:49:34;21.00;99.90
18297;DHT22;18066;52.106;5.534;2023-05-07T10:52:15;20.90;99.90
18297;DHT22;18066;52.106;5.534;2023-05-07T10:54:42;21.20;99.90
18297;DHT22;18066;52.106;5.534;2023-05-07T10:57:33;21.30;99.90
18297;DHT22;18066;52.106;5.534;2023-05-07T11:00:02;21.30;99.90
18297;DHT22;18066;52.106;5.534;2023-05-07T11:03:06;21.60;99.90
18297;DHT22;18066;52.106;5.534;2023-05-07T11:05:34;21.70;99.90
18297;DHT22;18066;52.106;5.534;2023-05-07T11:08:02;21.70;99.90
18297;DHT22;18066;52.106;5.534;2023-05-07T11:10:50;21.70;99.90
18297;DHT22;18066;52.106;5.534;2023-05-07T11:16:05;22.10;99.90
18297;DHT22;18066;52.106;5.534;2023-05-07T11:18:47;22.20;99.90
18297;DHT22;18066;52.106;5.534;2023-05-07T11:21:32;22.10;99.90
18297;DHT22;18066;52.106;5.534;2023-05-07T11:23:59;22.10;99.90
18297;DHT22;18066;52.106;5.534;2023-05-07T11:26:31;22.10;99.90
18297;DHT22;18066;52.106;5.534;2023-05-07T11:29:12;22.10;99.90
18297;DHT22;18066;52.106;5.534;2023-05-07T11:31:40;22.30;99.90
18297;DHT22;18066;52.106;5.534;2023-05-07T11:34:07;22.50;99.90
18297;DHT22;18066;52.106;5.534;2023-05-07T11:36:34;22.70;99.90
18297;DHT22;18066;52.106;5.534;2023-05-07T11:39:02;22.90;99.90
18297;DHT22;18066;52.106;5.534;2023-05-07T11:41:36;23.00;99.90
18297;DHT22;18066;52.106;5.534;2023-05-07T11:44:03;23.10;99.90
18297;DHT22;18066;52.106;5.534;2023-05-07T11:46:32;23.30;99.90
18297;DHT22;18066;52.106;5.534;2023-05-07T11:49:00;23.40;99.90
18297;DHT22;18066;52.106;5.534;2023-05-07T11:51:27;23.10;99.90
18297;DHT22;18066;52.106;5.534;2023-05-07T11:53:54;22.70;99.90
18297;DHT22;18066;52.106;5.534;2023-05-07T11:56:21;22.50;99.90
18297;DHT22;18066;52.106;5.534;2023-05-07T11:58:48;22.40;99.90
18297;DHT22;18066;52.106;5.534;2023-05-07T12:01:17;22.50;99.90
18297;DHT22;18066;52.106;5.534;2023-05-07T12:03:46;22.60;99.90
18297;DHT22;18066;52.106;5.534;2023-05-07T12:06:15;22.50;99.90
18297;DHT22;18066;52.106;5.534;2023-05-07T12:08:43;22.60;99.90
18297;DHT22;18066;52.106;5.534;2023-05-07T12:11:14;22.80;99.90
18297;DHT22;18066;52.106;5.534;2023-05-07T12:13:41;23.00;99.90
18297;DHT22;18066;52.106;5.534;2023-05-07T12:16:08;23.20;99.90
18297;DHT22;18066;52.106;5.534;2023-05-07T12:18:36;23.20;99.90
18297;DHT22;18066;52.106;5.534;2023-05-07T12:21:06;23.10;99.90
18297;DHT22;18066;52.106;5.534;2023-05-07T12:23:34;23.20;99.90
18297;DHT22;18066;52.106;5.534;2023-05-07T12:26:02;23.20;99.90
18297;DHT22;18066;52.106;5.534;2023-05-07T12:28:29;23.10;99.90
18297;DHT22;18066;52.106;5.534;2023-05-07T12:30:57;23.30;99.90
18297;DHT22;18066;52.106;5.534;2023-05-07T12:33:25;23.60;99.90
18297;DHT22;18066;52.106;5.534;2023-05-07T12:35:54;23.60;99.90
18297;DHT22;18066;52.106;5.534;2023-05-07T12:38:23;23.70;99.90
18297;DHT22;18066;52.106;5.534;2023-05-07T12:40:53;23.70;99.90
18297;DHT22;18066;52.106;5.534;2023-05-07T12:43:21;23.60;99.90
18297;DHT22;18066;52.106;5.534;2023-05-07T12:45:50;23.50;99.90
18297;DHT22;18066;52.106;5.534;2023-05-07T12:48:17;23.30;99.90
18297;DHT22;18066;52.106;5.534;2023-05-07T12:50:44;23.20;99.90
18297;DHT22;18066;52.106;5.534;2023-05-07T12:53:11;23.00;99.90
18297;DHT22;18066;52.106;5.534;2023-05-07T12:55:44;22.70;99.90
18297;DHT22;18066;52.106;5.534;2023-05-07T12:58:17;22.30;99.90
18297;DHT22;18066;52.106;5.534;2023-05-07T13:00:46;22.30;99.90
18297;DHT22;18066;52.106;5.534;2023-05-07T13:03:21;22.50;99.90
18297;DHT22;18066;52.106;5.534;2023-05-07T13:05:48;22.70;99.90
18297;DHT22;18066;52.106;5.534;2023-05-07T13:08:23;22.70;99.90
18297;DHT22;18066;52.106;5.534;2023-05-07T13:10:52;22.80;99.90
18297;DHT22;18066;52.106;5.534;2023-05-07T13:13:19;22.70;99.90
18297;DHT22;18066;52.106;5.534;2023-05-07T13:15:46;22.60;99.90
18297;DHT22;18066;52.106;5.534;2023-05-07T13:18:13;22.60;99.90
18297;DHT22;18066;52.106;5.534;2023-05-07T13:20:40;22.50;99.90
18297;DHT22;18066;52.106;5.534;2023-05-07T13:23:07;22.50;99.90
18297;DHT22;18066;52.106;5.534;2023-05-07T13:25:34;22.60;99.90
18297;DHT22;18066;52.106;5.534;2023-05-07T13:28:02;22.40;99.90
18297;DHT22;18066;52.106;5.534;2023-05-07T13:30:29;22.30;99.90
18297;DHT22;18066;52.106;5.534;2023-05-07T13:32:56;22.20;99.90
18297;DHT22;18066;52.106;5.534;2023-05-07T13:35:23;22.20;99.90
18297;DHT22;18066;52.106;5.534;2023-05-07T13:37:50;22.30;99.90
18297;DHT22;18066;52.106;5.534;2023-05-07T13:40:17;22.20;99.90
18297;DHT22;18066;52.106;5.534;2023-05-07T13:42:44;22.00;99.90
18297;DHT22;18066;52.106;5.534;2023-05-07T13:45:13;22.00;99.90
18297;DHT22;18066;52.106;5.534;2023-05-07T13:47:40;22.00;99.90
18297;DHT22;18066;52.106;5.534;2023-05-07T13:50:08;21.90;99.90
18297;DHT22;18066;52.106;5.534;2023-05-07T13:52:36;21.80;99.90
18297;DHT22;18066;52.106;5.534;2023-05-07T13:55:04;21.80;99.90
18297;DHT22;18066;52.106;5.534;2023-05-07T13:57:31;21.70;99.90
18297;DHT22;18066;52.106;5.534;2023-05-07T13:59:58;21.50;99.90
18297;DHT22;18066;52.106;5.534;2023-05-07T14:02:26;21.30;99.90
18297;DHT22;18066;52.106;5.534;2023-05-07T14:04:52;21.20;99.90
18297;DHT22;18066;52.106;5.534;2023-05-07T14:07:20;21.10;99.90
18297;DHT22;18066;52.106;5.534;2023-05-07T14:09:46;21.10;99.90
18297;DHT22;18066;52.106;5.534;2023-05-07T14:12:13;21.10;99.90
18297;DHT22;18066;52.106;5.534;2023-05-07T14:14:40;21.10;99.90
18297;DHT22;18066;52.106;5.534;2023-05-07T14:17:06;21.10;99.90
18297;DHT22;18066;52.106;5.534;2023-05-07T14:19:35;21.10;99.90
18297;DHT22;18066;52.106;5.534;2023-05-07T14:22:02;21.00;99.90
18297;DHT22;18066;52.106;5.534;2023-05-07T14:24:29;21.10;99.90
18297;DHT22;18066;52.106;5.534;2023-05-07T14:26:56;21.10;99.90
18297;DHT22;18066;52.106;5.534;2023-05-07T14:29:22;21.10;99.90
18297;DHT22;18066;52.106;5.534;2023-05-07T14:31:49;21.30;99.90
18297;DHT22;18066;52.106;5.534;2023-05-07T14:34:16;21.40;99.90
18297;DHT22;18066;52.106;5.534;2023-05-07T14:36:44;21.40;99.90
18297;DHT22;18066;52.106;5.534;2023-05-07T14:39:11;21.30;99.90
18297;DHT22;18066;52.106;5.534;2023-05-07T14:41:38;21.30;99.90
18297;DHT22;18066;52.106;5.534;2023-05-07T14:44:05;21.20;99.90
18297;DHT22;18066;52.106;5.534;2023-05-07T14:46:31;21.10;99.90
18297;DHT22;18066;52.106;5.534;2023-05-07T14:48:58;20.80;99.90
18297;DHT22;18066;52.106;5.534;2023-05-07T14:51:25;20.60;99.90
18297;DHT22;18066;52.106;5.534;2023-05-07T14:53:55;20.30;99.90
18297;DHT22;18066;52.106;5.534;2023-05-07T14:56:22;19.80;99.90
18297;DHT22;18066;52.106;5.534;2023-05-07T14:58:48;19.40;99.90
18297;DHT22;18066;52.106;5.534;2023-05-07T15:01:15;19.10;99.90
18297;DHT22;18066;52.106;5.534;2023-05-07T15:03:42;19.00;99.90
18297;DHT22;18066;52.106;5.534;2023-05-07T15:06:09;19.10;99.90
18297;DHT22;18066;52.106;5.534;2023-05-07T15:08:36;19.10;99.90
18297;DHT22;18066;52.106;5.534;2023-05-07T15:11:04;19.10;99.90
18297;DHT22;18066;52.106;5.534;2023-05-07T15:13:30;19.00;99.90
18297;DHT22;18066;52.106;5.534;2023-05-07T15:15:57;19.00;99.90
18297;DHT22;18066;52.106;5.534;2023-05-07T15:18:24;19.10;99.90
18297;DHT22;18066;52.106;5.534;2023-05-07T15:20:51;19.20;99.90
18297;DHT22;18066;52.106;5.534;2023-05-07T15:23:18;19.30;99.90
18297;DHT22;18066;52.106;5.534;2023-05-07T15:25:44;19.30;99.90
18297;DHT22;18066;52.106;5.534;2023-05-07T15:28:13;19.30;99.90
18297;DHT22;18066;52.106;5.534;2023-05-07T15:30:39;19.30;99.90
18297;DHT22;18066;52.106;5.534;2023-05-07T15:33:06;19.30;99.90
18297;DHT22;18066;52.106;5.534;2023-05-07T15:35:33;19.20;99.90
18297;DHT22;18066;52.106;5.534;2023-05-07T15:38:00;19.20;99.90